sensor_id;sensor_type;location;lat;lon;timestamp;temperature;humidity
55173;DHT22;41061;52.822;6.860;2022-08-02T00:01:25;12.40;99.90
55173;DHT22;41061;52.822;6.860;2022-08-02T00:03:50;12.40;99.90
55173;DHT22;41061;52.822;6.860;2022-08-02T00:06:16;12.40;99.90
55173;DHT22;41061;52.822;6.860;2022-08-02T00:08:41;12.40;99.90
55173;DHT22;41061;52.822;6.860;2022-08-02T00:11:07;12.30;99.90
55173;DHT22;41061;52.822;6.860;2022-08-02T00:13:33;12.30;99.90
55173;DHT22;41061;52.822;6.860;2022-08-02T00:15:58;12.30;99.90
55173;DHT22;41061;52.822;6.860;2022-08-02T00:18:24;12.30;99.90
55173;DHT22;41061;52.822;6.860;2022-08-02T00:20:50;12.30;99.90
55173;DHT22;41061;52.822;6.860;2022-08-02T00:23:15;12.30;99.90
55173;DHT22;41061;52.822;6.860;2022-08-02T00:25:41;12.30;99.90
55173;DHT22;41061;52.822;6.860;2022-08-02T00:28:07;12.40;99.90
55173;DHT22;41061;52.822;6.860;2022-08-02T00:30:33;12.50;99.90
55173;DHT22;41061;52.822;6.860;2022-08-02T00:32:58;12.50;99.90
55173;DHT22;41061;52.822;6.860;2022-08-02T00:35:24;12.50;99.90
55173;DHT22;41061;52.822;6.860;2022-08-02T00:37:50;12.60;99.90
55173;DHT22;41061;52.822;6.860;2022-08-02T00:40:20;12.60;99.90
55173;DHT22;41061;52.822;6.860;2022-08-02T00:43:00;12.60;99.90
55173;DHT22;41061;52.822;6.860;2022-08-02T00:45:26;12.60;99.90
55173;DHT22;41061;52.822;6.860;2022-08-02T00:47:52;12.70;99.90
55173;DHT22;41061;52.822;6.860;2022-08-02T00:50:17;12.60;99.90
55173;DHT22;41061;52.822;6.860;2022-08-02T00:52:43;12.60;99.90
55173;DHT22;41061;52.822;6.860;2022-08-02T00:55:08;12.60;99.90
55173;DHT22;41061;52.822;6.860;2022-08-02T00:57:34;12.60;99.90
55173;DHT22;41061;52.822;6.860;2022-08-02T01:00:00;12.60;99.90
55173;DHT22;41061;52.822;6.860;2022-08-02T01:02:25;12.50;99.90
55173;DHT22;41061;52.822;6.860;2022-08-02T01:04:51;12.50;99.90
55173;DHT22;41061;52.822;6.860;2022-08-02T01:07:16;12.50;99.90
55173;DHT22;41061;52.822;6.860;2022-08-02T01:09:44;12.50;99.90
55173;DHT22;41061;52.822;6.860;2022-08-02T01:12:11;12.50;99.90
55173;DHT22;41061;52.822;6.860;2022-08-02T01:14:37;12.50;99.90
55173;DHT22;41061;52.822;6.860;2022-08-02T01:17:07;12.50;99.90
55173;DHT22;41061;52.822;6.860;2022-08-02T01:19:51;12.60;99.90
55173;DHT22;41061;52.822;6.860;2022-08-02T01:30:49;12.60;99.90
55173;DHT22;41061;52.822;6.860;2022-08-02T01:33:18;12.60;99.90
55173;DHT22;41061;52.822;6.860;2022-08-02T01:35:51;12.60;99.90
55173;DHT22;41061;52.822;6.860;2022-08-02T01:38:38;12.60;99.90
55173;DHT22;41061;52.822;6.860;2022-08-02T01:41:07;12.50;99.90
55173;DHT22;41061;52.822;6.860;2022-08-02T01:43:35;12.50;99.90
55173;DHT22;41061;52.822;6.860;2022-08-02T01:46:03;12.50;99.90
55173;DHT22;41061;52.822;6.860;2022-08-02T01:48:30;12.50;99.90
55173;DHT22;41061;52.822;6.860;2022-08-02T01:50:58;12.50;99.90
55173;DHT22;41061;52.822;6.860;2022-08-02T01:53:25;12.50;99.90
55173;DHT22;41061;52.822;6.860;2022-08-02T01:55:53;12.40;99.90
55173;DHT22;41061;52.822;6.860;2022-08-02T01:58:23;12.50;99.90
55173;DHT22;41061;52.822;6.860;2022-08-02T02:00:52;12.40;99.90
55173;DHT22;41061;52.822;6.860;2022-08-02T02:03:21;12.50;99.90
55173;DHT22;41061;52.822;6.860;2022-08-02T02:05:49;12.50;99.90
55173;DHT22;41061;52.822;6.860;2022-08-02T02:08:20;12.40;99.90
55173;DHT22;41061;52.822;6.860;2022-08-02T02:10:49;12.50;99.90
55173;DHT22;41061;52.822;6.860;2022-08-02T02:13:17;12.50;99.90
55173;DHT22;41061;52.822;6.860;2022-08-02T02:15:46;12.50;99.90
55173;DHT22;41061;52.822;6.860;2022-08-02T02:18:17;12.50;99.90
55173;DHT22;41061;52.822;6.860;2022-08-02T02:20:43;12.50;99.90
55173;DHT22;41061;52.822;6.860;2022-08-02T02:23:10;12.50;99.90
55173;DHT22;41061;52.822;6.860;2022-08-02T02:25:37;12.50;99.90
55173;DHT22;41061;52.822;6.860;2022-08-02T02:28:11;12.50;99.90
55173;DHT22;41061;52.822;6.860;2022-08-02T02:30:42;12.50;99.90
55173;DHT22;41061;52.822;6.860;2022-08-02T02:33:13;12.50;99.90
55173;DHT22;41061;52.822;6.860;2022-08-02T02:35:42;12.50;99.90
55173;DHT22;41061;52.822;6.860;2022-08-02T02:38:12;12.50;99.90
55173;DHT22;41061;52.822;6.860;2022-08-02T02:40:39;12.40;99.90
55173;DHT22;41061;52.822;6.860;2022-08-02T02:43:07;12.40;99.90
55173;DHT22;41061;52.822;6.860;2022-08-02T02:45:35;12.40;99.90
55173;DHT22;41061;52.822;6.860;2022-08-02T02:48:03;12.50;99.90
55173;DHT22;41061;52.822;6.860;2022-08-02T02:50:29;12.40;99.90
55173;DHT22;41061;52.822;6.860;2022-08-02T02:52:56;12.40;99.90
55173;DHT22;41061;52.822;6.860;2022-08-02T02:55:23;12.40;99.90
55173;DHT22;41061;52.822;6.860;2022-08-02T02:57:50;12.40;99.90
55173;DHT22;41061;52.822;6.860;2022-08-02T03:00:16;12.40;99.90
55173;DHT22;41061;52.822;6.860;2022-08-02T03:02:43;12.40;99.90
55173;DHT22;41061;52.822;6.860;2022-08-02T03:05:11;12.40;99.90
55173;DHT22;41061;52.822;6.860;2022-08-02T03:07:37;12.40;99.90
55173;DHT22;41061;52.822;6.860;2022-08-02T03:10:04;12.40;99.90
55173;DHT22;41061;52.822;6.860;2022-08-02T03:12:31;12.40;99.90
55173;DHT22;41061;52.822;6.860;2022-08-02T03:14:59;12.30;99.90
55173;DHT22;41061;52.822;6.860;2022-08-02T03:17:25;12.30;99.90
55173;DHT22;41061;52.822;6.860;2022-08-02T03:19:51;12.30;99.90
55173;DHT22;41061;52.822;6.860;2022-08-02T03:22:16;12.30;99.90
55173;DHT22;41061;52.822;6.860;2022-08-02T03:24:42;12.30;99.90
55173;DHT22;41061;52.822;6.860;2022-08-02T03:27:07;12.30;99.90
55173;DHT22;41061;52.822;6.860;2022-08-02T03:29:33;12.30;99.90
55173;DHT22;41061;52.822;6.860;2022-08-02T03:31:59;12.30;99.90
55173;DHT22;41061;52.822;6.860;2022-08-02T03:34:24;12.30;99.90
55173;DHT22;41061;52.822;6.860;2022-08-02T03:36:54;12.20;99.90
55173;DHT22;41061;52.822;6.860;2022-08-02T03:39:21;12.20;99.90
55173;DHT22;41061;52.822;6.860;2022-08-02T03:41:48;12.30;99.90
55173;DHT22;41061;52.822;6.860;2022-08-02T03:44:14;12.30;99.90
55173;DHT22;41061;52.822;6.860;2022-08-02T03:46:41;12.20;99.90
55173;DHT22;41061;52.822;6.860;2022-08-02T03:49:08;12.30;99.90
55173;DHT22;41061;52.822;6.860;2022-08-02T03:51:35;12.30;99.90
55173;DHT22;41061;52.822;6.860;2022-08-02T03:54:02;12.30;99.90
55173;DHT22;41061;52.822;6.860;2022-08-02T03:56:28;12.30;99.90
55173;DHT22;41061;52.822;6.860;2022-08-02T03:59:07;12.30;99.90
55173;DHT22;41061;52.822;6.860;2022-08-02T04:01:33;12.30;99.90
55173;DHT22;41061;52.822;6.860;2022-08-02T04:03:59;12.30;99.90
55173;DHT22;41061;52.822;6.860;2022-08-02T04:06:24;12.30;99.90
55173;DHT22;41061;52.822;6.860;2022-08-02T04:08:50;12.30;99.90
55173;DHT22;41061;52.822;6.860;2022-08-02T04:11:17;12.30;99.90
55173;DHT22;41061;52.822;6.860;2022-08-02T04:13:56;12.30;99.90
55173;DHT22;41061;52.822;6.860;2022-08-02T04:16:49;12.40;99.90
55173;DHT22;41061;52.822;6.860;2022-08-02T04:19:38;12.40;99.90
55173;DHT22;41061;52.822;6.860;2022-08-02T04:22:07;12.40;99.90
55173;DHT22;41061;52.822;6.860;2022-08-02T04:24:40;12.50;99.90
55173;DHT22;41061;52.822;6.860;2022-08-02T04:27:09;12.50;99.90
55173;DHT22;41061;52.822;6.860;2022-08-02T04:29:35;12.60;99.90
55173;DHT22;41061;52.822;6.860;2022-08-02T04:32:04;12.60;99.90
55173;DHT22;41061;52.822;6.860;2022-08-02T04:34:30;12.70;99.90
55173;DHT22;41061;52.822;6.860;2022-08-02T04:36:56;12.80;99.90
55173;DHT22;41061;52.822;6.860;2022-08-02T04:39:23;12.80;99.90
55173;DHT22;41061;52.822;6.860;2022-08-02T04:41:49;12.90;99.90
55173;DHT22;41061;52.822;6.860;2022-08-02T04:44:14;13.00;99.90
55173;DHT22;41061;52.822;6.860;2022-08-02T04:46:42;13.10;99.90
55173;DHT22;41061;52.822;6.860;2022-08-02T04:49:08;13.10;99.90
55173;DHT22;41061;52.822;6.860;2022-08-02T04:51:39;13.20;99.90
55173;DHT22;41061;52.822;6.860;2022-08-02T04:54:06;13.30;99.90
55173;DHT22;41061;52.822;6.860;2022-08-02T04:56:32;13.30;99.90
55173;DHT22;41061;52.822;6.860;2022-08-02T04:58:58;13.40;99.90
55173;DHT22;41061;52.822;6.860;2022-08-02T05:01:23;13.50;99.90
55173;DHT22;41061;52.822;6.860;2022-08-02T05:03:49;13.50;99.90
55173;DHT22;41061;52.822;6.860;2022-08-02T05:06:15;13.60;99.90
55173;DHT22;41061;52.822;6.860;2022-08-02T05:08:41;13.70;99.90
55173;DHT22;41061;52.822;6.860;2022-08-02T05:11:06;13.90;99.90
55173;DHT22;41061;52.822;6.860;2022-08-02T05:13:32;13.90;99.90
55173;DHT22;41061;52.822;6.860;2022-08-02T05:15:58;13.90;99.90
55173;DHT22;41061;52.822;6.860;2022-08-02T05:18:26;14.00;99.90
55173;DHT22;41061;52.822;6.860;2022-08-02T05:20:53;14.10;99.90
55173;DHT22;41061;52.822;6.860;2022-08-02T05:23:19;14.20;99.90
55173;DHT22;41061;52.822;6.860;2022-08-02T05:25:45;14.20;99.90
55173;DHT22;41061;52.822;6.860;2022-08-02T05:28:10;14.20;99.90
55173;DHT22;41061;52.822;6.860;2022-08-02T05:30:36;14.30;99.90
55173;DHT22;41061;52.822;6.860;2022-08-02T05:33:02;14.40;99.90
55173;DHT22;41061;52.822;6.860;2022-08-02T05:35:29;14.50;99.90
55173;DHT22;41061;52.822;6.860;2022-08-02T05:37:54;14.60;99.90
55173;DHT22;41061;52.822;6.860;2022-08-02T05:40:20;14.70;99.90
55173;DHT22;41061;52.822;6.860;2022-08-02T05:42:46;14.70;99.90
55173;DHT22;41061;52.822;6.860;2022-08-02T05:45:12;14.80;99.90
55173;DHT22;41061;52.822;6.860;2022-08-02T05:47:38;14.90;99.90
55173;DHT22;41061;52.822;6.860;2022-08-02T05:50:08;14.90;99.90
55173;DHT22;41061;52.822;6.860;2022-08-02T05:53:03;15.00;99.90
55173;DHT22;41061;52.822;6.860;2022-08-02T05:55:45;15.10;99.90
55173;DHT22;41061;52.822;6.860;2022-08-02T05:58:17;15.20;99.90
55173;DHT22;41061;52.822;6.860;2022-08-02T06:00:48;15.30;99.90
55173;DHT22;41061;52.822;6.860;2022-08-02T06:03:24;15.40;99.90
55173;DHT22;41061;52.822;6.860;2022-08-02T06:05:57;15.40;99.90
55173;DHT22;41061;52.822;6.860;2022-08-02T06:08:30;15.50;99.90
55173;DHT22;41061;52.822;6.860;2022-08-02T06:10:59;15.70;99.90
55173;DHT22;41061;52.822;6.860;2022-08-02T06:13:25;15.80;99.90
55173;DHT22;41061;52.822;6.860;2022-08-02T06:15:51;15.90;99.90
55173;DHT22;41061;52.822;6.860;2022-08-02T06:18:18;16.00;99.90
55173;DHT22;41061;52.822;6.860;2022-08-02T06:20:48;16.10;99.90
55173;DHT22;41061;52.822;6.860;2022-08-02T06:23:15;16.20;99.90
55173;DHT22;41061;52.822;6.860;2022-08-02T06:25:45;16.30;99.90
55173;DHT22;41061;52.822;6.860;2022-08-02T06:28:13;16.40;99.90
55173;DHT22;41061;52.822;6.860;2022-08-02T06:30:41;16.50;99.90
55173;DHT22;41061;52.822;6.860;2022-08-02T06:33:08;16.70;99.90
55173;DHT22;41061;52.822;6.860;2022-08-02T06:36:09;16.80;99.90
55173;DHT22;41061;52.822;6.860;2022-08-02T06:38:43;17.00;99.90
55173;DHT22;41061;52.822;6.860;2022-08-02T06:41:17;17.10;99.90
55173;DHT22;41061;52.822;6.860;2022-08-02T06:44:02;17.20;99.90
55173;DHT22;41061;52.822;6.860;2022-08-02T06:46:29;17.40;99.90
55173;DHT22;41061;52.822;6.860;2022-08-02T06:48:55;17.50;99.90
55173;DHT22;41061;52.822;6.860;2022-08-02T06:51:21;17.60;99.90
55173;DHT22;41061;52.822;6.860;2022-08-02T06:53:47;17.70;99.90
55173;DHT22;41061;52.822;6.860;2022-08-02T06:56:13;17.90;99.90
55173;DHT22;41061;52.822;6.860;2022-08-02T06:58:40;18.00;99.90
55173;DHT22;41061;52.822;6.860;2022-08-02T07:01:06;18.10;99.90
55173;DHT22;41061;52.822;6.860;2022-08-02T07:03:36;18.10;99.90
55173;DHT22;41061;52.822;6.860;2022-08-02T07:06:03;18.20;99.90
55173;DHT22;41061;52.822;6.860;2022-08-02T07:08:29;18.20;99.90
55173;DHT22;41061;52.822;6.860;2022-08-02T07:11:01;18.20;99.90
55173;DHT22;41061;52.822;6.860;2022-08-02T07:13:27;18.40;99.90
55173;DHT22;41061;52.822;6.860;2022-08-02T07:15:53;18.40;99.90
55173;DHT22;41061;52.822;6.860;2022-08-02T07:18:19;18.50;99.90
55173;DHT22;41061;52.822;6.860;2022-08-02T07:20:45;18.60;99.90
55173;DHT22;41061;52.822;6.860;2022-08-02T07:23:11;18.80;99.90
55173;DHT22;41061;52.822;6.860;2022-08-02T07:25:37;18.90;99.90
55173;DHT22;41061;52.822;6.860;2022-08-02T07:28:03;19.10;99.90
55173;DHT22;41061;52.822;6.860;2022-08-02T07:30:30;19.20;99.90
55173;DHT22;41061;52.822;6.860;2022-08-02T07:33:00;19.50;99.90
55173;DHT22;41061;52.822;6.860;2022-08-02T07:35:26;19.70;99.90
55173;DHT22;41061;52.822;6.860;2022-08-02T07:37:52;19.90;99.90
55173;DHT22;41061;52.822;6.860;2022-08-02T07:40:19;19.90;99.90
55173;DHT22;41061;52.822;6.860;2022-08-02T07:42:46;19.90;99.90
55173;DHT22;41061;52.822;6.860;2022-08-02T07:45:12;19.90;99.90
55173;DHT22;41061;52.822;6.860;2022-08-02T07:47:39;19.70;99.90
55173;DHT22;41061;52.822;6.860;2022-08-02T07:50:06;19.70;99.90
55173;DHT22;41061;52.822;6.860;2022-08-02T07:52:32;19.70;99.90
55173;DHT22;41061;52.822;6.860;2022-08-02T07:54:58;19.80;99.90
55173;DHT22;41061;52.822;6.860;2022-08-02T07:57:24;20.00;99.90
55173;DHT22;41061;52.822;6.860;2022-08-02T07:59:50;20.20;99.90
55173;DHT22;41061;52.822;6.860;2022-08-02T08:02:16;20.30;99.90
55173;DHT22;41061;52.822;6.860;2022-08-02T08:04:42;20.50;99.90
55173;DHT22;41061;52.822;6.860;2022-08-02T08:07:08;20.70;99.90
55173;DHT22;41061;52.822;6.860;2022-08-02T08:09:36;20.80;99.90
55173;DHT22;41061;52.822;6.860;2022-08-02T08:12:07;21.00;99.90
55173;DHT22;41061;52.822;6.860;2022-08-02T08:14:33;21.10;99.90
55173;DHT22;41061;52.822;6.860;2022-08-02T08:16:59;21.20;99.90
55173;DHT22;41061;52.822;6.860;2022-08-02T08:19:25;21.20;99.90
55173;DHT22;41061;52.822;6.860;2022-08-02T08:21:51;21.30;99.90
55173;DHT22;41061;52.822;6.860;2022-08-02T08:24:16;21.40;99.90
55173;DHT22;41061;52.822;6.860;2022-08-02T08:26:42;21.60;99.90
55173;DHT22;41061;52.822;6.860;2022-08-02T08:29:08;21.70;99.90
55173;DHT22;41061;52.822;6.860;2022-08-02T08:31:33;21.80;99.90
55173;DHT22;41061;52.822;6.860;2022-08-02T08:34:00;21.80;99.90
55173;DHT22;41061;52.822;6.860;2022-08-02T08:36:26;21.90;99.90
55173;DHT22;41061;52.822;6.860;2022-08-02T08:38:53;22.00;99.90
55173;DHT22;41061;52.822;6.860;2022-08-02T08:41:19;22.20;99.90
55173;DHT22;41061;52.822;6.860;2022-08-02T08:43:46;22.40;99.90
55173;DHT22;41061;52.822;6.860;2022-08-02T08:46:21;22.60;99.90
55173;DHT22;41061;52.822;6.860;2022-08-02T08:48:52;22.80;99.90
55173;DHT22;41061;52.822;6.860;2022-08-02T08:51:20;22.90;99.90
55173;DHT22;41061;52.822;6.860;2022-08-02T08:53:48;22.90;99.90
55173;DHT22;41061;52.822;6.860;2022-08-02T08:56:15;22.90;99.90
55173;DHT22;41061;52.822;6.860;2022-08-02T08:58:42;22.90;99.90
55173;DHT22;41061;52.822;6.860;2022-08-02T09:01:08;22.90;99.90
55173;DHT22;41061;52.822;6.860;2022-08-02T09:03:37;22.90;99.90
55173;DHT22;41061;52.822;6.860;2022-08-02T09:06:03;23.00;99.90
55173;DHT22;41061;52.822;6.860;2022-08-02T09:08:29;23.20;99.90
55173;DHT22;41061;52.822;6.860;2022-08-02T09:10:56;23.50;99.90
55173;DHT22;41061;52.822;6.860;2022-08-02T09:13:27;23.60;99.90
55173;DHT22;41061;52.822;6.860;2022-08-02T09:16:03;23.70;99.90
55173;DHT22;41061;52.822;6.860;2022-08-02T09:18:38;23.70;99.90
55173;DHT22;41061;52.822;6.860;2022-08-02T09:21:08;23.80;99.90
55173;DHT22;41061;52.822;6.860;2022-08-02T09:23:36;24.00;99.90
55173;DHT22;41061;52.822;6.860;2022-08-02T09:26:04;24.10;99.90
55173;DHT22;41061;52.822;6.860;2022-08-02T09:28:33;24.20;99.90
55173;DHT22;41061;52.822;6.860;2022-08-02T09:31:05;24.30;99.90
55173;DHT22;41061;52.822;6.860;2022-08-02T09:33:31;24.40;99.90
55173;DHT22;41061;52.822;6.860;2022-08-02T09:36:06;24.50;99.90
55173;DHT22;41061;52.822;6.860;2022-08-02T09:38:32;24.60;99.90
55173;DHT22;41061;52.822;6.860;2022-08-02T09:40:58;24.80;99.90
55173;DHT22;41061;52.822;6.860;2022-08-02T09:43:39;25.00;99.90
55173;DHT22;41061;52.822;6.860;2022-08-02T09:46:18;25.20;99.90
55173;DHT22;41061;52.822;6.860;2022-08-02T09:53:53;25.60;99.90
55173;DHT22;41061;52.822;6.860;2022-08-02T09:56:20;25.80;99.90
55173;DHT22;41061;52.822;6.860;2022-08-02T09:58:46;25.80;99.90
55173;DHT22;41061;52.822;6.860;2022-08-02T10:01:12;25.70;98.90
55173;DHT22;41061;52.822;6.860;2022-08-02T10:03:56;25.60;99.90
55173;DHT22;41061;52.822;6.860;2022-08-02T10:06:22;25.60;99.90
55173;DHT22;41061;52.822;6.860;2022-08-02T10:08:49;25.60;99.90
55173;DHT22;41061;52.822;6.860;2022-08-02T10:11:16;25.60;99.90
55173;DHT22;41061;52.822;6.860;2022-08-02T10:13:42;25.70;99.90
55173;DHT22;41061;52.822;6.860;2022-08-02T10:16:07;25.80;99.90
55173;DHT22;41061;52.822;6.860;2022-08-02T10:18:37;25.90;99.90
55173;DHT22;41061;52.822;6.860;2022-08-02T10:21:06;25.90;99.90
55173;DHT22;41061;52.822;6.860;2022-08-02T10:23:33;25.90;99.90
55173;DHT22;41061;52.822;6.860;2022-08-02T10:26:02;26.00;99.90
55173;DHT22;41061;52.822;6.860;2022-08-02T10:28:28;26.10;99.90
55173;DHT22;41061;52.822;6.860;2022-08-02T10:30:58;26.20;99.90
55173;DHT22;41061;52.822;6.860;2022-08-02T10:33:26;26.20;99.90
55173;DHT22;41061;52.822;6.860;2022-08-02T10:35:54;26.20;99.90
55173;DHT22;41061;52.822;6.860;2022-08-02T10:38:24;26.20;99.90
55173;DHT22;41061;52.822;6.860;2022-08-02T10:40:54;26.20;99.90
55173;DHT22;41061;52.822;6.860;2022-08-02T10:46:23;26.40;99.90
55173;DHT22;41061;52.822;6.860;2022-08-02T10:49:13;26.60;99.90
55173;DHT22;41061;52.822;6.860;2022-08-02T10:54:27;27.00;99.90
55173;DHT22;41061;52.822;6.860;2022-08-02T10:56:55;27.10;99.90
55173;DHT22;41061;52.822;6.860;2022-08-02T10:59:33;27.30;99.90
55173;DHT22;41061;52.822;6.860;2022-08-02T11:02:02;27.50;99.90
55173;DHT22;41061;52.822;6.860;2022-08-02T11:07:44;27.70;99.90
55173;DHT22;41061;52.822;6.860;2022-08-02T11:18:14;28.00;99.90
55173;DHT22;41061;52.822;6.860;2022-08-02T11:20:43;28.00;99.90
55173;DHT22;41061;52.822;6.860;2022-08-02T11:23:34;28.00;99.90
55173;DHT22;41061;52.822;6.860;2022-08-02T11:28:56;27.90;99.90
55173;DHT22;41061;52.822;6.860;2022-08-02T11:31:22;28.20;99.90
55173;DHT22;41061;52.822;6.860;2022-08-02T11:33:49;28.50;99.90
55173;DHT22;41061;52.822;6.860;2022-08-02T11:36:15;28.60;99.90
55173;DHT22;41061;52.822;6.860;2022-08-02T11:38:42;28.70;99.90
55173;DHT22;41061;52.822;6.860;2022-08-02T11:41:08;28.70;99.90
55173;DHT22;41061;52.822;6.860;2022-08-02T11:43:35;28.80;99.90
55173;DHT22;41061;52.822;6.860;2022-08-02T11:46:11;28.90;99.90
55173;DHT22;41061;52.822;6.860;2022-08-02T11:48:39;29.00;99.90
55173;DHT22;41061;52.822;6.860;2022-08-02T11:51:10;29.00;99.90
55173;DHT22;41061;52.822;6.860;2022-08-02T11:53:50;28.90;99.90
55173;DHT22;41061;52.822;6.860;2022-08-02T11:56:18;28.70;99.90
55173;DHT22;41061;52.822;6.860;2022-08-02T11:59:19;28.50;99.90
55173;DHT22;41061;52.822;6.860;2022-08-02T12:01:45;28.40;99.90
55173;DHT22;41061;52.822;6.860;2022-08-02T12:04:13;28.70;99.90
55173;DHT22;41061;52.822;6.860;2022-08-02T12:06:40;28.80;99.30
55173;DHT22;41061;52.822;6.860;2022-08-02T12:09:07;28.90;99.70
55173;DHT22;41061;52.822;6.860;2022-08-02T12:11:34;28.90;98.30
55173;DHT22;41061;52.822;6.860;2022-08-02T12:14:04;28.70;96.80
55173;DHT22;41061;52.822;6.860;2022-08-02T12:16:38;28.50;97.00
55173;DHT22;41061;52.822;6.860;2022-08-02T12:19:24;28.20;98.60
55173;DHT22;41061;52.822;6.860;2022-08-02T12:24:32;27.80;97.70
55173;DHT22;41061;52.822;6.860;2022-08-02T12:26:58;27.80;98.00
55173;DHT22;41061;52.822;6.860;2022-08-02T12:29:32;27.70;95.90
55173;DHT22;41061;52.822;6.860;2022-08-02T12:31:58;27.60;95.30
55173;DHT22;41061;52.822;6.860;2022-08-02T12:34:26;27.70;95.80
55173;DHT22;41061;52.822;6.860;2022-08-02T12:37:03;27.80;96.00
55173;DHT22;41061;52.822;6.860;2022-08-02T12:39:39;27.80;96.40
55173;DHT22;41061;52.822;6.860;2022-08-02T12:42:07;27.90;97.20
55173;DHT22;41061;52.822;6.860;2022-08-02T12:44:35;27.90;97.60
55173;DHT22;41061;52.822;6.860;2022-08-02T12:47:07;28.00;97.90
55173;DHT22;41061;52.822;6.860;2022-08-02T12:49:34;28.10;98.80
55173;DHT22;41061;52.822;6.860;2022-08-02T12:52:20;28.20;97.40
55173;DHT22;41061;52.822;6.860;2022-08-02T12:54:46;28.40;98.30
55173;DHT22;41061;52.822;6.860;2022-08-02T12:57:15;28.70;99.00
55173;DHT22;41061;52.822;6.860;2022-08-02T12:59:43;29.00;99.10
55173;DHT22;41061;52.822;6.860;2022-08-02T13:02:13;29.20;98.00
55173;DHT22;41061;52.822;6.860;2022-08-02T13:04:41;29.10;97.50
55173;DHT22;41061;52.822;6.860;2022-08-02T13:07:07;29.00;97.20
55173;DHT22;41061;52.822;6.860;2022-08-02T13:09:37;28.70;96.80
55173;DHT22;41061;52.822;6.860;2022-08-02T13:12:04;28.50;97.30
55173;DHT22;41061;52.822;6.860;2022-08-02T13:14:30;28.30;98.30
55173;DHT22;41061;52.822;6.860;2022-08-02T13:16:56;28.10;98.70
55173;DHT22;41061;52.822;6.860;2022-08-02T13:19:22;28.00;99.40
55173;DHT22;41061;52.822;6.860;2022-08-02T13:21:47;27.80;99.90
55173;DHT22;41061;52.822;6.860;2022-08-02T13:24:14;27.70;99.90
55173;DHT22;41061;52.822;6.860;2022-08-02T13:26:42;27.70;99.90
55173;DHT22;41061;52.822;6.860;2022-08-02T13:29:09;27.60;99.90
55173;DHT22;41061;52.822;6.860;2022-08-02T13:31:35;27.50;99.90
55173;DHT22;41061;52.822;6.860;2022-08-02T13:34:03;27.40;99.90
55173;DHT22;41061;52.822;6.860;2022-08-02T13:36:29;27.30;99.90
55173;DHT22;41061;52.822;6.860;2022-08-02T13:38:56;27.30;99.90
55173;DHT22;41061;52.822;6.860;2022-08-02T13:41:21;27.10;99.90
55173;DHT22;41061;52.822;6.860;2022-08-02T13:43:47;27.10;99.90
55173;DHT22;41061;52.822;6.860;2022-08-02T13:46:12;27.00;99.90
55173;DHT22;41061;52.822;6.860;2022-08-02T13:48:38;27.00;99.90
55173;DHT22;41061;52.822;6.860;2022-08-02T13:51:04;27.10;99.90
55173;DHT22;41061;52.822;6.860;2022-08-02T13:53:31;27.30;99.90
55173;DHT22;41061;52.822;6.860;2022-08-02T13:55:57;27.50;99.90
55173;DHT22;41061;52.822;6.860;2022-08-02T13:58:24;27.70;99.90
55173;DHT22;41061;52.822;6.860;2022-08-02T14:00:49;27.90;99.50
55173;DHT22;41061;52.822;6.860;2022-08-02T14:03:15;27.90;98.80
55173;DHT22;41061;52.822;6.860;2022-08-02T14:05:41;27.90;99.00
55173;DHT22;41061;52.822;6.860;2022-08-02T14:08:07;27.90;99.00
55173;DHT22;41061;52.822;6.860;2022-08-02T14:10:33;27.90;99.60
55173;DHT22;41061;52.822;6.860;2022-08-02T14:12:59;27.90;99.90
55173;DHT22;41061;52.822;6.860;2022-08-02T14:15:24;28.00;99.90
55173;DHT22;41061;52.822;6.860;2022-08-02T14:17:54;28.10;99.90
55173;DHT22;41061;52.822;6.860;2022-08-02T14:20:20;28.20;99.90
55173;DHT22;41061;52.822;6.860;2022-08-02T14:22:46;28.10;99.60
55173;DHT22;41061;52.822;6.860;2022-08-02T14:25:11;27.90;99.90
55173;DHT22;41061;52.822;6.860;2022-08-02T14:27:37;27.80;99.90
55173;DHT22;41061;52.822;6.860;2022-08-02T14:30:03;27.70;99.90
55173;DHT22;41061;52.822;6.860;2022-08-02T14:32:29;27.50;99.90
55173;DHT22;41061;52.822;6.860;2022-08-02T14:34:55;27.50;99.90
55173;DHT22;41061;52.822;6.860;2022-08-02T14:37:20;27.50;99.90
55173;DHT22;41061;52.822;6.860;2022-08-02T14:39:46;27.50;99.90
55173;DHT22;41061;52.822;6.860;2022-08-02T14:42:12;27.50;99.90
55173;DHT22;41061;52.822;6.860;2022-08-02T14:44:38;27.40;99.90
55173;DHT22;41061;52.822;6.860;2022-08-02T14:47:03;27.40;99.90
55173;DHT22;41061;52.822;6.860;2022-08-02T14:49:30;27.50;99.90
55173;DHT22;41061;52.822;6.860;2022-08-02T14:51:56;27.70;99.90
55173;DHT22;41061;52.822;6.860;2022-08-02T14:54:23;28.00;99.90
55173;DHT22;41061;52.822;6.860;2022-08-02T14:56:51;28.40;99.90
55173;DHT22;41061;52.822;6.860;2022-08-02T14:59:16;28.70;99.90
55173;DHT22;41061;52.822;6.860;2022-08-02T15:01:42;28.80;99.90
55173;DHT22;41061;52.822;6.860;2022-08-02T15:04:08;28.80;99.90
55173;DHT22;41061;52.822;6.860;2022-08-02T15:06:33;28.60;99.90
55173;DHT22;41061;52.822;6.860;2022-08-02T15:08:59;28.50;99.90
55173;DHT22;41061;52.822;6.860;2022-08-02T15:11:25;28.30;99.90
55173;DHT22;41061;52.822;6.860;2022-08-02T15:13:50;28.20;99.90
55173;DHT22;41061;52.822;6.860;2022-08-02T15:16:16;28.00;99.90
55173;DHT22;41061;52.822;6.860;2022-08-02T15:18:43;27.90;99.90
55173;DHT22;41061;52.822;6.860;2022-08-02T15:21:08;27.90;99.90
55173;DHT22;41061;52.822;6.860;2022-08-02T15:23:36;27.90;99.90
55173;DHT22;41061;52.822;6.860;2022-08-02T15:26:02;27.90;99.90
55173;DHT22;41061;52.822;6.860;2022-08-02T15:28:28;27.80;99.90
55173;DHT22;41061;52.822;6.860;2022-08-02T15:30:56;27.80;99.90
55173;DHT22;41061;52.822;6.860;2022-08-02T15:33:22;27.90;99.90
55173;DHT22;41061;52.822;6.860;2022-08-02T15:35:48;28.00;99.90
55173;DHT22;41061;52.822;6.860;2022-08-02T15:38:13;28.10;99.90
55173;DHT22;41061;52.822;6.860;2022-08-02T15:40:39;28.10;99.90
55173;DHT22;41061;52.822;6.860;2022-08-02T15:43:08;28.20;99.90
55173;DHT22;41061;52.822;6.860;2022-08-02T15:45:37;28.40;99.90
55173;DHT22;41061;52.822;6.860;2022-08-02T15:48:05;28.60;99.90
55173;DHT22;41061;52.822;6.860;2022-08-02T15:50:31;28.70;99.90
55173;DHT22;41061;52.822;6.860;2022-08-02T15:52:57;28.70;99.90
55173;DHT22;41061;52.822;6.860;2022-08-02T15:55:23;28.60;99.90
55173;DHT22;41061;52.822;6.860;2022-08-02T15:57:48;28.70;99.90
55173;DHT22;41061;52.822;6.860;2022-08-02T16:00:15;28.70;99.90
55173;DHT22;41061;52.822;6.860;2022-08-02T16:02:43;28.80;99.90
55173;DHT22;41061;52.822;6.860;2022-08-02T16:05:08;28.90;99.90
55173;DHT22;41061;52.822;6.860;2022-08-02T16:07:35;28.90;99.90
55173;DHT22;41061;52.822;6.860;2022-08-02T16:10:02;28.90;99.90
55173;DHT22;41061;52.822;6.860;2022-08-02T16:12:29;28.80;99.90